sensor_id;sensor_type;location;lat;lon;timestamp;P1;durP1;ratioP1;P2;durP2;ratioP2
22470;SDS011;11402;51.374;6.594;2022-12-18T00:01:29;19.75;;;11.23;;
22470;SDS011;11402;51.374;6.594;2022-12-18T00:03:58;18.77;;;11.30;;
22470;SDS011;11402;51.374;6.594;2022-12-18T00:06:25;21.23;;;11.63;;
22470;SDS011;11402;51.374;6.594;2022-12-18T00:08:52;21.75;;;11.68;;
22470;SDS011;11402;51.374;6.594;2022-12-18T00:11:20;21.92;;;12.35;;
22470;SDS011;11402;51.374;6.594;2022-12-18T00:13:48;22.58;;;12.43;;
22470;SDS011;11402;51.374;6.594;2022-12-18T00:16:15;20.63;;;11.77;;
22470;SDS011;11402;51.374;6.594;2022-12-18T00:18:45;21.48;;;11.15;;
22470;SDS011;11402;51.374;6.594;2022-12-18T00:21:11;20.52;;;11.82;;
22470;SDS011;11402;51.374;6.594;2022-12-18T00:23:38;19.48;;;10.77;;
22470;SDS011;11402;51.374;6.594;2022-12-18T00:26:07;20.90;;;11.52;;
22470;SDS011;11402;51.374;6.594;2022-12-18T00:28:40;20.73;;;11.43;;
22470;SDS011;11402;51.374;6.594;2022-12-18T00:31:24;21.13;;;11.18;;
22470;SDS011;11402;51.374;6.594;2022-12-18T00:33:50;20.90;;;11.60;;
22470;SDS011;11402;51.374;6.594;2022-12-18T00:36:20;23.13;;;12.27;;
22470;SDS011;11402;51.374;6.594;2022-12-18T00:38:48;25.55;;;12.63;;
22470;SDS011;11402;51.374;6.594;2022-12-18T00:41:14;21.05;;;12.10;;
22470;SDS011;11402;51.374;6.594;2022-12-18T00:44:02;21.42;;;11.13;;
22470;SDS011;11402;51.374;6.594;2022-12-18T00:46:28;20.38;;;11.18;;
22470;SDS011;11402;51.374;6.594;2022-12-18T00:48:54;21.00;;;11.13;;
22470;SDS011;11402;51.374;6.594;2022-12-18T00:51:19;18.83;;;11.40;;
22470;SDS011;11402;51.374;6.594;2022-12-18T00:53:45;18.70;;;10.05;;
22470;SDS011;11402;51.374;6.594;2022-12-18T00:56:10;20.88;;;11.23;;
22470;SDS011;11402;51.374;6.594;2022-12-18T00:58:36;21.17;;;11.30;;
22470;SDS011;11402;51.374;6.594;2022-12-18T01:01:03;19.85;;;10.63;;
22470;SDS011;11402;51.374;6.594;2022-12-18T01:03:29;20.17;;;10.25;;
22470;SDS011;11402;51.374;6.594;2022-12-18T01:05:55;18.67;;;9.95;;
22470;SDS011;11402;51.374;6.594;2022-12-18T01:08:21;20.13;;;10.30;;
22470;SDS011;11402;51.374;6.594;2022-12-18T01:10:46;19.55;;;10.38;;
22470;SDS011;11402;51.374;6.594;2022-12-18T01:13:12;17.27;;;10.68;;
22470;SDS011;11402;51.374;6.594;2022-12-18T01:15:38;20.75;;;10.77;;
22470;SDS011;11402;51.374;6.594;2022-12-18T01:18:05;17.83;;;10.45;;
22470;SDS011;11402;51.374;6.594;2022-12-18T01:20:31;19.95;;;10.70;;
22470;SDS011;11402;51.374;6.594;2022-12-18T01:22:57;23.92;;;10.32;;
22470;SDS011;11402;51.374;6.594;2022-12-18T01:25:22;18.00;;;10.18;;
22470;SDS011;11402;51.374;6.594;2022-12-18T01:27:48;19.20;;;10.25;;
22470;SDS011;11402;51.374;6.594;2022-12-18T01:30:13;19.52;;;9.77;;
22470;SDS011;11402;51.374;6.594;2022-12-18T01:32:39;21.25;;;10.00;;
22470;SDS011;11402;51.374;6.594;2022-12-18T01:35:05;19.65;;;10.52;;
22470;SDS011;11402;51.374;6.594;2022-12-18T01:37:31;17.30;;;10.57;;
22470;SDS011;11402;51.374;6.594;2022-12-18T01:39:57;19.40;;;10.20;;
22470;SDS011;11402;51.374;6.594;2022-12-18T01:42:22;17.98;;;10.15;;
22470;SDS011;11402;51.374;6.594;2022-12-18T01:44:53;20.08;;;9.75;;
22470;SDS011;11402;51.374;6.594;2022-12-18T01:50:00;19.80;;;10.57;;
22470;SDS011;11402;51.374;6.594;2022-12-18T01:52:31;20.17;;;10.38;;
22470;SDS011;11402;51.374;6.594;2022-12-18T01:54:58;16.20;;;9.52;;
22470;SDS011;11402;51.374;6.594;2022-12-18T01:57:25;19.00;;;10.77;;
22470;SDS011;11402;51.374;6.594;2022-12-18T01:59:52;18.70;;;10.07;;
22470;SDS011;11402;51.374;6.594;2022-12-18T02:02:20;18.83;;;10.23;;
22470;SDS011;11402;51.374;6.594;2022-12-18T02:04:46;21.45;;;10.70;;
22470;SDS011;11402;51.374;6.594;2022-12-18T02:07:15;19.20;;;9.95;;
22470;SDS011;11402;51.374;6.594;2022-12-18T02:09:50;21.90;;;11.18;;
22470;SDS011;11402;51.374;6.594;2022-12-18T02:12:17;19.90;;;10.43;;
22470;SDS011;11402;51.374;6.594;2022-12-18T02:15:00;18.35;;;10.05;;
22470;SDS011;11402;51.374;6.594;2022-12-18T02:20:21;20.33;;;11.05;;
22470;SDS011;11402;51.374;6.594;2022-12-18T02:28:55;18.35;;;10.55;;
22470;SDS011;11402;51.374;6.594;2022-12-18T02:31:27;20.33;;;10.93;;
22470;SDS011;11402;51.374;6.594;2022-12-18T02:33:56;21.17;;;10.88;;
22470;SDS011;11402;51.374;6.594;2022-12-18T02:36:26;19.75;;;10.60;;
22470;SDS011;11402;51.374;6.594;2022-12-18T02:38:54;20.08;;;10.18;;
22470;SDS011;11402;51.374;6.594;2022-12-18T02:41:21;20.80;;;10.60;;
22470;SDS011;11402;51.374;6.594;2022-12-18T02:43:48;19.88;;;10.35;;
22470;SDS011;11402;51.374;6.594;2022-12-18T02:46:28;22.15;;;11.30;;
22470;SDS011;11402;51.374;6.594;2022-12-18T02:49:19;18.88;;;10.50;;
22470;SDS011;11402;51.374;6.594;2022-12-18T02:57:18;18.63;;;10.13;;
22470;SDS011;11402;51.374;6.594;2022-12-18T02:59:56;20.15;;;10.80;;
22470;SDS011;11402;51.374;6.594;2022-12-18T03:05:43;15.37;;;8.17;;
22470;SDS011;11402;51.374;6.594;2022-12-18T03:08:20;16.88;;;9.82;;
22470;SDS011;11402;51.374;6.594;2022-12-18T03:10:59;19.63;;;10.05;;
22470;SDS011;11402;51.374;6.594;2022-12-18T03:13:33;18.80;;;10.43;;
22470;SDS011;11402;51.374;6.594;2022-12-18T03:16:10;20.60;;;10.98;;
22470;SDS011;11402;51.374;6.594;2022-12-18T03:18:41;17.67;;;10.35;;
22470;SDS011;11402;51.374;6.594;2022-12-18T03:21:12;17.77;;;10.02;;
22470;SDS011;11402;51.374;6.594;2022-12-18T03:23:40;19.77;;;10.65;;
22470;SDS011;11402;51.374;6.594;2022-12-18T03:26:10;21.15;;;10.05;;
22470;SDS011;11402;51.374;6.594;2022-12-18T03:28:42;18.95;;;10.10;;
22470;SDS011;11402;51.374;6.594;2022-12-18T03:31:12;18.30;;;10.35;;
22470;SDS011;11402;51.374;6.594;2022-12-18T03:33:47;19.02;;;10.20;;
22470;SDS011;11402;51.374;6.594;2022-12-18T03:36:20;17.83;;;10.02;;
22470;SDS011;11402;51.374;6.594;2022-12-18T03:38:46;19.67;;;10.13;;
22470;SDS011;11402;51.374;6.594;2022-12-18T03:44:03;17.98;;;10.40;;
22470;SDS011;11402;51.374;6.594;2022-12-18T03:46:54;18.75;;;10.15;;
22470;SDS011;11402;51.374;6.594;2022-12-18T03:52:18;20.60;;;10.25;;
22470;SDS011;11402;51.374;6.594;2022-12-18T03:54:56;20.65;;;10.38;;
22470;SDS011;11402;51.374;6.594;2022-12-18T03:57:25;17.42;;;10.23;;
22470;SDS011;11402;51.374;6.594;2022-12-18T03:59:57;17.60;;;9.30;;
22470;SDS011;11402;51.374;6.594;2022-12-18T04:04:53;18.13;;;9.63;;
22470;SDS011;11402;51.374;6.594;2022-12-18T04:07:23;19.08;;;9.90;;
22470;SDS011;11402;51.374;6.594;2022-12-18T04:09:49;17.55;;;9.65;;
22470;SDS011;11402;51.374;6.594;2022-12-18T04:12:18;18.45;;;9.73;;
22470;SDS011;11402;51.374;6.594;2022-12-18T04:14:44;17.33;;;9.70;;
22470;SDS011;11402;51.374;6.594;2022-12-18T04:17:09;17.27;;;9.40;;
22470;SDS011;11402;51.374;6.594;2022-12-18T04:19:35;19.92;;;9.68;;
22470;SDS011;11402;51.374;6.594;2022-12-18T04:22:00;15.93;;;9.07;;
22470;SDS011;11402;51.374;6.594;2022-12-18T04:24:26;18.60;;;9.05;;
22470;SDS011;11402;51.374;6.594;2022-12-18T04:26:51;19.10;;;9.13;;
22470;SDS011;11402;51.374;6.594;2022-12-18T04:29:17;19.35;;;8.88;;
22470;SDS011;11402;51.374;6.594;2022-12-18T04:31:43;17.33;;;9.02;;
22470;SDS011;11402;51.374;6.594;2022-12-18T04:34:08;18.15;;;8.93;;
22470;SDS011;11402;51.374;6.594;2022-12-18T04:36:34;14.20;;;8.43;;
22470;SDS011;11402;51.374;6.594;2022-12-18T04:38:59;14.18;;;8.23;;
22470;SDS011;11402;51.374;6.594;2022-12-18T04:41:25;16.38;;;8.93;;
22470;SDS011;11402;51.374;6.594;2022-12-18T04:43:51;15.73;;;9.40;;
22470;SDS011;11402;51.374;6.594;2022-12-18T04:46:16;15.43;;;9.20;;
22470;SDS011;11402;51.374;6.594;2022-12-18T04:48:45;16.73;;;8.85;;
22470;SDS011;11402;51.374;6.594;2022-12-18T04:51:11;16.73;;;8.80;;
22470;SDS011;11402;51.374;6.594;2022-12-18T04:53:37;16.70;;;8.95;;
22470;SDS011;11402;51.374;6.594;2022-12-18T04:56:08;15.32;;;8.75;;
22470;SDS011;11402;51.374;6.594;2022-12-18T04:58:38;15.07;;;8.20;;
22470;SDS011;11402;51.374;6.594;2022-12-18T05:01:05;18.20;;;8.57;;
22470;SDS011;11402;51.374;6.594;2022-12-18T05:03:32;15.38;;;8.65;;
22470;SDS011;11402;51.374;6.594;2022-12-18T05:05:58;14.73;;;8.27;;
22470;SDS011;11402;51.374;6.594;2022-12-18T05:08:24;14.88;;;8.38;;
22470;SDS011;11402;51.374;6.594;2022-12-18T05:10:49;16.35;;;8.48;;
22470;SDS011;11402;51.374;6.594;2022-12-18T05:13:22;17.38;;;8.57;;
22470;SDS011;11402;51.374;6.594;2022-12-18T05:15:51;12.23;;;7.30;;
22470;SDS011;11402;51.374;6.594;2022-12-18T05:18:17;18.15;;;9.30;;
22470;SDS011;11402;51.374;6.594;2022-12-18T05:20:43;15.45;;;8.70;;
22470;SDS011;11402;51.374;6.594;2022-12-18T05:23:08;15.57;;;8.32;;
22470;SDS011;11402;51.374;6.594;2022-12-18T05:25:34;19.15;;;9.20;;
22470;SDS011;11402;51.374;6.594;2022-12-18T05:28:00;16.05;;;8.15;;
22470;SDS011;11402;51.374;6.594;2022-12-18T05:30:25;15.88;;;9.10;;
22470;SDS011;11402;51.374;6.594;2022-12-18T05:32:52;15.07;;;8.57;;
22470;SDS011;11402;51.374;6.594;2022-12-18T05:35:18;13.52;;;8.25;;
22470;SDS011;11402;51.374;6.594;2022-12-18T05:37:43;15.25;;;8.57;;
22470;SDS011;11402;51.374;6.594;2022-12-18T05:40:09;13.05;;;7.57;;
22470;SDS011;11402;51.374;6.594;2022-12-18T05:42:36;14.65;;;8.10;;
22470;SDS011;11402;51.374;6.594;2022-12-18T05:45:02;13.70;;;8.48;;
22470;SDS011;11402;51.374;6.594;2022-12-18T05:47:28;14.20;;;7.75;;
22470;SDS011;11402;51.374;6.594;2022-12-18T05:49:53;13.68;;;7.63;;
22470;SDS011;11402;51.374;6.594;2022-12-18T05:52:19;12.20;;;7.13;;
22470;SDS011;11402;51.374;6.594;2022-12-18T05:54:45;14.93;;;7.53;;
22470;SDS011;11402;51.374;6.594;2022-12-18T05:57:11;14.23;;;7.57;;
22470;SDS011;11402;51.374;6.594;2022-12-18T05:59:36;12.75;;;7.95;;
22470;SDS011;11402;51.374;6.594;2022-12-18T06:02:02;12.82;;;7.82;;
22470;SDS011;11402;51.374;6.594;2022-12-18T06:04:28;12.57;;;8.10;;
22470;SDS011;11402;51.374;6.594;2022-12-18T06:06:55;17.67;;;8.27;;
22470;SDS011;11402;51.374;6.594;2022-12-18T06:09:20;15.82;;;8.63;;
22470;SDS011;11402;51.374;6.594;2022-12-18T06:11:46;15.70;;;8.88;;
22470;SDS011;11402;51.374;6.594;2022-12-18T06:14:11;16.90;;;9.45;;
22470;SDS011;11402;51.374;6.594;2022-12-18T06:16:37;16.02;;;8.48;;
22470;SDS011;11402;51.374;6.594;2022-12-18T06:19:03;12.73;;;8.13;;
22470;SDS011;11402;51.374;6.594;2022-12-18T06:21:30;14.98;;;8.43;;
22470;SDS011;11402;51.374;6.594;2022-12-18T06:23:57;15.85;;;8.50;;
22470;SDS011;11402;51.374;6.594;2022-12-18T06:26:23;14.52;;;8.85;;
22470;SDS011;11402;51.374;6.594;2022-12-18T06:28:49;15.73;;;8.65;;
22470;SDS011;11402;51.374;6.594;2022-12-18T06:31:14;16.23;;;8.80;;
22470;SDS011;11402;51.374;6.594;2022-12-18T06:33:40;15.68;;;8.35;;
22470;SDS011;11402;51.374;6.594;2022-12-18T06:38:34;16.15;;;8.73;;
22470;SDS011;11402;51.374;6.594;2022-12-18T06:41:05;13.98;;;8.20;;
22470;SDS011;11402;51.374;6.594;2022-12-18T06:43:34;15.65;;;8.20;;
22470;SDS011;11402;51.374;6.594;2022-12-18T06:46:02;14.55;;;7.78;;
22470;SDS011;11402;51.374;6.594;2022-12-18T06:48:28;13.40;;;7.75;;
22470;SDS011;11402;51.374;6.594;2022-12-18T06:50:54;13.45;;;8.27;;
22470;SDS011;11402;51.374;6.594;2022-12-18T06:53:20;13.23;;;7.45;;
22470;SDS011;11402;51.374;6.594;2022-12-18T06:55:46;13.68;;;7.80;;
22470;SDS011;11402;51.374;6.594;2022-12-18T06:58:11;15.23;;;8.20;;
22470;SDS011;11402;51.374;6.594;2022-12-18T07:00:37;16.98;;;8.63;;
22470;SDS011;11402;51.374;6.594;2022-12-18T07:03:03;18.10;;;8.35;;
22470;SDS011;11402;51.374;6.594;2022-12-18T07:05:28;13.82;;;7.68;;
22470;SDS011;11402;51.374;6.594;2022-12-18T07:07:54;16.27;;;8.45;;
22470;SDS011;11402;51.374;6.594;2022-12-18T07:10:20;15.48;;;8.23;;
22470;SDS011;11402;51.374;6.594;2022-12-18T07:12:45;14.75;;;8.57;;
22470;SDS011;11402;51.374;6.594;2022-12-18T07:15:11;17.15;;;8.35;;
22470;SDS011;11402;51.374;6.594;2022-12-18T07:17:36;16.10;;;8.73;;
22470;SDS011;11402;51.374;6.594;2022-12-18T07:20:02;13.57;;;7.85;;
22470;SDS011;11402;51.374;6.594;2022-12-18T07:22:28;15.55;;;8.23;;
22470;SDS011;11402;51.374;6.594;2022-12-18T07:24:53;13.25;;;7.85;;
22470;SDS011;11402;51.374;6.594;2022-12-18T07:27:20;14.20;;;7.32;;
22470;SDS011;11402;51.374;6.594;2022-12-18T07:29:45;14.73;;;7.80;;
22470;SDS011;11402;51.374;6.594;2022-12-18T07:32:11;16.17;;;8.73;;
22470;SDS011;11402;51.374;6.594;2022-12-18T07:34:36;14.63;;;7.63;;
22470;SDS011;11402;51.374;6.594;2022-12-18T07:37:02;15.27;;;7.97;;
22470;SDS011;11402;51.374;6.594;2022-12-18T07:39:28;14.90;;;8.25;;
22470;SDS011;11402;51.374;6.594;2022-12-18T07:41:53;16.15;;;9.48;;
22470;SDS011;11402;51.374;6.594;2022-12-18T07:44:37;12.98;;;8.18;;
22470;SDS011;11402;51.374;6.594;2022-12-18T07:47:03;16.60;;;8.18;;
22470;SDS011;11402;51.374;6.594;2022-12-18T07:49:29;14.57;;;8.23;;
22470;SDS011;11402;51.374;6.594;2022-12-18T07:51:55;14.65;;;8.20;;
22470;SDS011;11402;51.374;6.594;2022-12-18T07:54:22;15.60;;;8.63;;
22470;SDS011;11402;51.374;6.594;2022-12-18T07:56:48;14.57;;;8.63;;
22470;SDS011;11402;51.374;6.594;2022-12-18T07:59:14;14.63;;;8.80;;
22470;SDS011;11402;51.374;6.594;2022-12-18T08:01:39;16.15;;;8.65;;
22470;SDS011;11402;51.374;6.594;2022-12-18T08:04:05;14.75;;;8.13;;
22470;SDS011;11402;51.374;6.594;2022-12-18T08:06:31;17.48;;;8.95;;
22470;SDS011;11402;51.374;6.594;2022-12-18T08:08:56;14.77;;;8.73;;
22470;SDS011;11402;51.374;6.594;2022-12-18T08:11:23;16.60;;;8.52;;
22470;SDS011;11402;51.374;6.594;2022-12-18T08:13:50;15.65;;;8.82;;
22470;SDS011;11402;51.374;6.594;2022-12-18T08:16:16;16.48;;;8.27;;
22470;SDS011;11402;51.374;6.594;2022-12-18T08:18:42;15.20;;;8.18;;
22470;SDS011;11402;51.374;6.594;2022-12-18T08:21:15;15.38;;;8.65;;
22470;SDS011;11402;51.374;6.594;2022-12-18T08:23:43;17.77;;;8.82;;
22470;SDS011;11402;51.374;6.594;2022-12-18T08:26:12;15.18;;;9.20;;
22470;SDS011;11402;51.374;6.594;2022-12-18T08:28:38;18.98;;;9.00;;
22470;SDS011;11402;51.374;6.594;2022-12-18T08:31:04;16.48;;;8.60;;
22470;SDS011;11402;51.374;6.594;2022-12-18T08:33:31;18.17;;;9.45;;
22470;SDS011;11402;51.374;6.594;2022-12-18T08:36:00;15.93;;;9.00;;
22470;SDS011;11402;51.374;6.594;2022-12-18T08:38:26;16.02;;;9.50;;
22470;SDS011;11402;51.374;6.594;2022-12-18T08:40:59;17.13;;;9.25;;
22470;SDS011;11402;51.374;6.594;2022-12-18T08:46:10;16.40;;;8.77;;
22470;SDS011;11402;51.374;6.594;2022-12-18T08:48:36;15.98;;;8.82;;
22470;SDS011;11402;51.374;6.594;2022-12-18T08:51:01;14.57;;;8.10;;
22470;SDS011;11402;51.374;6.594;2022-12-18T08:53:27;18.33;;;9.55;;
22470;SDS011;11402;51.374;6.594;2022-12-18T08:55:53;15.10;;;8.50;;
22470;SDS011;11402;51.374;6.594;2022-12-18T08:58:18;22.05;;;9.45;;
22470;SDS011;11402;51.374;6.594;2022-12-18T09:00:44;15.35;;;8.32;;
22470;SDS011;11402;51.374;6.594;2022-12-18T09:03:17;16.27;;;8.73;;
22470;SDS011;11402;51.374;6.594;2022-12-18T09:05:43;18.48;;;9.00;;
22470;SDS011;11402;51.374;6.594;2022-12-18T09:08:11;21.85;;;9.35;;
22470;SDS011;11402;51.374;6.594;2022-12-18T09:10:43;18.63;;;9.50;;
22470;SDS011;11402;51.374;6.594;2022-12-18T09:13:10;16.30;;;8.95;;
22470;SDS011;11402;51.374;6.594;2022-12-18T09:15:44;17.40;;;9.25;;
22470;SDS011;11402;51.374;6.594;2022-12-18T09:18:11;17.60;;;9.68;;
22470;SDS011;11402;51.374;6.594;2022-12-18T09:20:37;15.20;;;8.77;;
22470;SDS011;11402;51.374;6.594;2022-12-18T09:23:03;15.82;;;8.98;;
22470;SDS011;11402;51.374;6.594;2022-12-18T09:25:30;19.65;;;9.68;;
22470;SDS011;11402;51.374;6.594;2022-12-18T09:28:03;17.33;;;9.48;;
22470;SDS011;11402;51.374;6.594;2022-12-18T09:30:29;15.98;;;9.07;;
22470;SDS011;11402;51.374;6.594;2022-12-18T09:32:58;22.30;;;9.40;;
22470;SDS011;11402;51.374;6.594;2022-12-18T09:35:24;16.70;;;9.18;;
22470;SDS011;11402;51.374;6.594;2022-12-18T09:37:49;15.57;;;8.95;;
22470;SDS011;11402;51.374;6.594;2022-12-18T09:40:19;16.45;;;8.90;;
22470;SDS011;11402;51.374;6.594;2022-12-18T09:42:49;21.05;;;10.20;;
22470;SDS011;11402;51.374;6.594;2022-12-18T09:45:20;18.60;;;10.15;;
22470;SDS011;11402;51.374;6.594;2022-12-18T09:47:47;17.30;;;9.32;;
22470;SDS011;11402;51.374;6.594;2022-12-18T09:50:26;15.57;;;9.25;;
22470;SDS011;11402;51.374;6.594;2022-12-18T09:52:57;16.80;;;10.25;;
22470;SDS011;11402;51.374;6.594;2022-12-18T09:55:41;17.33;;;9.52;;
22470;SDS011;11402;51.374;6.594;2022-12-18T10:01:10;17.75;;;10.15;;
22470;SDS011;11402;51.374;6.594;2022-12-18T10:03:47;17.98;;;10.00;;
22470;SDS011;11402;51.374;6.594;2022-12-18T10:06:14;20.23;;;9.98;;
22470;SDS011;11402;51.374;6.594;2022-12-18T10:08:46;14.13;;;7.80;;
22470;SDS011;11402;51.374;6.594;2022-12-18T10:14:35;16.77;;;9.38;;
22470;SDS011;11402;51.374;6.594;2022-12-18T10:17:14;19.85;;;9.52;;
22470;SDS011;11402;51.374;6.594;2022-12-18T10:20:10;15.68;;;9.63;;
22470;SDS011;11402;51.374;6.594;2022-12-18T10:22:55;17.63;;;9.70;;
22470;SDS011;11402;51.374;6.594;2022-12-18T10:25:38;19.67;;;9.55;;
22470;SDS011;11402;51.374;6.594;2022-12-18T10:28:24;16.33;;;9.23;;
22470;SDS011;11402;51.374;6.594;2022-12-18T10:30:51;17.25;;;9.15;;
22470;SDS011;11402;51.374;6.594;2022-12-18T10:33:18;19.88;;;9.45;;
22470;SDS011;11402;51.374;6.594;2022-12-18T10:35:45;17.92;;;9.82;;
22470;SDS011;11402;51.374;6.594;2022-12-18T10:43:30;15.57;;;8.98;;
22470;SDS011;11402;51.374;6.594;2022-12-18T10:45:59;18.08;;;9.88;;
22470;SDS011;11402;51.374;6.594;2022-12-18T10:51:27;15.50;;;9.00;;
22470;SDS011;11402;51.374;6.594;2022-12-18T10:53:57;17.42;;;8.77;;
22470;SDS011;11402;51.374;6.594;2022-12-18T10:56:39;15.63;;;8.80;;
22470;SDS011;11402;51.374;6.594;2022-12-18T10:59:06;17.00;;;9.25;;
22470;SDS011;11402;51.374;6.594;2022-12-18T11:04:23;17.98;;;9.75;;
22470;SDS011;11402;51.374;6.594;2022-12-18T11:06:57;17.65;;;9.27;;
22470;SDS011;11402;51.374;6.594;2022-12-18T11:09:26;17.77;;;9.55;;
22470;SDS011;11402;51.374;6.594;2022-12-18T11:11:57;18.13;;;9.75;;
22470;SDS011;11402;51.374;6.594;2022-12-18T11:14:41;16.95;;;9.90;;
22470;SDS011;11402;51.374;6.594;2022-12-18T11:17:20;18.20;;;9.80;;
22470;SDS011;11402;51.374;6.594;2022-12-18T11:19:56;15.65;;;9.30;;
22470;SDS011;11402;51.374;6.594;2022-12-18T11:22:30;17.00;;;9.30;;
22470;SDS011;11402;51.374;6.594;2022-12-18T11:25:04;17.17;;;9.13;;
22470;SDS011;11402;51.374;6.594;2022-12-18T11:27:37;15.45;;;9.77;;
22470;SDS011;11402;51.374;6.594;2022-12-18T11:30:21;15.73;;;9.68;;
22470;SDS011;11402;51.374;6.594;2022-12-18T11:32:53;16.92;;;9.80;;
22470;SDS011;11402;51.374;6.594;2022-12-18T11:38:26;18.77;;;10.90;;
22470;SDS011;11402;51.374;6.594;2022-12-18T11:43:48;16.13;;;9.15;;
22470;SDS011;11402;51.374;6.594;2022-12-18T11:46:34;17.58;;;10.23;;
22470;SDS011;11402;51.374;6.594;2022-12-18T11:52:11;16.75;;;9.88;;
22470;SDS011;11402;51.374;6.594;2022-12-18T11:54:42;17.15;;;10.45;;
22470;SDS011;11402;51.374;6.594;2022-12-18T11:57:15;19.85;;;10.85;;
22470;SDS011;11402;51.374;6.594;2022-12-18T12:00:00;20.50;;;10.35;;
22470;SDS011;11402;51.374;6.594;2022-12-18T12:05:32;18.60;;;11.18;;
22470;SDS011;11402;51.374;6.594;2022-12-18T12:08:10;16.90;;;10.02;;
22470;SDS011;11402;51.374;6.594;2022-12-18T12:13:29;19.88;;;10.48;;
22470;SDS011;11402;51.374;6.594;2022-12-18T12:21:06;18.70;;;11.32;;
22470;SDS011;11402;51.374;6.594;2022-12-18T12:23:36;19.92;;;11.20;;
22470;SDS011;11402;51.374;6.594;2022-12-18T12:31:58;21.35;;;11.65;;
22470;SDS011;11402;51.374;6.594;2022-12-18T12:37:40;21.67;;;11.77;;
22470;SDS011;11402;51.374;6.594;2022-12-18T12:40:30;19.00;;;11.40;;
22470;SDS011;11402;51.374;6.594;2022-12-18T12:43:01;21.15;;;11.43;;
22470;SDS011;11402;51.374;6.594;2022-12-18T12:50:53;25.30;;;13.05;;
22470;SDS011;11402;51.374;6.594;2022-12-18T12:53:23;48.95;;;17.23;;
22470;SDS011;11402;51.374;6.594;2022-12-18T12:55:55;23.95;;;12.35;;
22470;SDS011;11402;51.374;6.594;2022-12-18T12:58:29;20.58;;;12.35;;
22470;SDS011;11402;51.374;6.594;2022-12-18T13:04:03;20.98;;;12.45;;
22470;SDS011;11402;51.374;6.594;2022-12-18T13:06:50;24.88;;;14.07;;
22470;SDS011;11402;51.374;6.594;2022-12-18T13:09:29;21.75;;;13.25;;
22470;SDS011;11402;51.374;6.594;2022-12-18T13:12:03;21.42;;;12.60;;
22470;SDS011;11402;51.374;6.594;2022-12-18T13:14:52;23.95;;;12.57;;
22470;SDS011;11402;51.374;6.594;2022-12-18T13:19:50;22.48;;;13.43;;
22470;SDS011;11402;51.374;6.594;2022-12-18T13:22:21;21.63;;;12.82;;
22470;SDS011;11402;51.374;6.594;2022-12-18T13:24:48;23.88;;;13.20;;
22470;SDS011;11402;51.374;6.594;2022-12-18T13:30:52;24.75;;;13.40;;
22470;SDS011;11402;51.374;6.594;2022-12-18T13:48:23;22.35;;;13.45;;
22470;SDS011;11402;51.374;6.594;2022-12-18T13:50:52;24.95;;;13.57;;
22470;SDS011;11402;51.374;6.594;2022-12-18T13:53:46;23.67;;;13.48;;
22470;SDS011;11402;51.374;6.594;2022-12-18T13:56:22;23.83;;;13.82;;
22470;SDS011;11402;51.374;6.594;2022-12-18T14:01:33;25.45;;;14.38;;
22470;SDS011;11402;51.374;6.594;2022-12-18T14:04:09;28.35;;;14.00;;
22470;SDS011;11402;51.374;6.594;2022-12-18T14:06:35;25.42;;;14.90;;
22470;SDS011;11402;51.374;6.594;2022-12-18T14:09:02;26.95;;;14.90;;
22470;SDS011;11402;51.374;6.594;2022-12-18T14:11:27;27.38;;;14.25;;
22470;SDS011;11402;51.374;6.594;2022-12-18T14:13:54;26.75;;;14.25;;
22470;SDS011;11402;51.374;6.594;2022-12-18T14:16:20;26.65;;;14.35;;
22470;SDS011;11402;51.374;6.594;2022-12-18T14:18:52;26.77;;;15.27;;
22470;SDS011;11402;51.374;6.594;2022-12-18T14:21:23;24.23;;;14.05;;
22470;SDS011;11402;51.374;6.594;2022-12-18T14:26:41;28.30;;;15.63;;
22470;SDS011;11402;51.374;6.594;2022-12-18T14:29:20;24.38;;;13.25;;
22470;SDS011;11402;51.374;6.594;2022-12-18T14:34:45;24.17;;;14.30;;
22470;SDS011;11402;51.374;6.594;2022-12-18T14:37:13;29.27;;;15.80;;
22470;SDS011;11402;51.374;6.594;2022-12-18T14:39:41;28.08;;;15.55;;
22470;SDS011;11402;51.374;6.594;2022-12-18T14:47:56;28.10;;;15.45;;
22470;SDS011;11402;51.374;6.594;2022-12-18T14:50:21;26.63;;;15.27;;
22470;SDS011;11402;51.374;6.594;2022-12-18T14:52:47;27.05;;;15.57;;
22470;SDS011;11402;51.374;6.594;2022-12-18T14:55:16;29.55;;;16.00;;
22470;SDS011;11402;51.374;6.594;2022-12-18T14:57:43;28.92;;;15.90;;
22470;SDS011;11402;51.374;6.594;2022-12-18T15:00:17;26.63;;;15.45;;
22470;SDS011;11402;51.374;6.594;2022-12-18T15:02:45;28.83;;;16.10;;
22470;SDS011;11402;51.374;6.594;2022-12-18T15:07:40;29.15;;;16.00;;
22470;SDS011;11402;51.374;6.594;2022-12-18T15:12:40;30.33;;;15.10;;
22470;SDS011;11402;51.374;6.594;2022-12-18T15:18:00;31.55;;;16.25;;
22470;SDS011;11402;51.374;6.594;2022-12-18T15:20:31;27.00;;;15.05;;
22470;SDS011;11402;51.374;6.594;2022-12-18T15:23:03;23.85;;;12.35;;
22470;SDS011;11402;51.374;6.594;2022-12-18T15:25:31;29.58;;;15.60;;
22470;SDS011;11402;51.374;6.594;2022-12-18T15:28:01;26.83;;;15.23;;
22470;SDS011;11402;51.374;6.594;2022-12-18T15:30:27;30.83;;;16.48;;
22470;SDS011;11402;51.374;6.594;2022-12-18T15:33:16;28.67;;;15.32;;
22470;SDS011;11402;51.374;6.594;2022-12-18T15:35:47;28.13;;;15.95;;
22470;SDS011;11402;51.374;6.594;2022-12-18T15:38:21;28.80;;;16.35;;
22470;SDS011;11402;51.374;6.594;2022-12-18T15:40:47;32.38;;;16.63;;
22470;SDS011;11402;51.374;6.594;2022-12-18T15:43:12;30.08;;;16.30;;
22470;SDS011;11402;51.374;6.594;2022-12-18T15:45:57;32.47;;;18.00;;
22470;SDS011;11402;51.374;6.594;2022-12-18T15:48:22;30.40;;;16.70;;
22470;SDS011;11402;51.374;6.594;2022-12-18T15:50:49;37.33;;;16.15;;
22470;SDS011;11402;51.374;6.594;2022-12-18T15:53:17;30.67;;;17.40;;
22470;SDS011;11402;51.374;6.594;2022-12-18T15:55:43;32.05;;;17.52;;
22470;SDS011;11402;51.374;6.594;2022-12-18T15:58:27;30.92;;;18.17;;
22470;SDS011;11402;51.374;6.594;2022-12-18T16:00:53;32.65;;;17.98;;
22470;SDS011;11402;51.374;6.594;2022-12-18T16:03:21;31.98;;;18.20;;
22470;SDS011;11402;51.374;6.594;2022-12-18T16:05:46;36.13;;;19.15;;
22470;SDS011;11402;51.374;6.594;2022-12-18T16:08:12;34.65;;;18.85;;
22470;SDS011;11402;51.374;6.594;2022-12-18T16:10:38;33.88;;;18.38;;
22470;SDS011;11402;51.374;6.594;2022-12-18T16:13:03;35.00;;;18.75;;
22470;SDS011;11402;51.374;6.594;2022-12-18T16:15:29;33.70;;;19.73;;
22470;SDS011;11402;51.374;6.594;2022-12-18T16:17:54;33.25;;;18.75;;
22470;SDS011;11402;51.374;6.594;2022-12-18T16:20:21;32.45;;;18.30;;
22470;SDS011;11402;51.374;6.594;2022-12-18T16:22:47;34.63;;;18.23;;
22470;SDS011;11402;51.374;6.594;2022-12-18T16:25:20;33.72;;;18.25;;
22470;SDS011;11402;51.374;6.594;2022-12-18T16:27:51;35.92;;;19.25;;
22470;SDS011;11402;51.374;6.594;2022-12-18T16:30:19;30.77;;;16.98;;
22470;SDS011;11402;51.374;6.594;2022-12-18T16:32:47;33.40;;;18.95;;
22470;SDS011;11402;51.374;6.594;2022-12-18T16:35:13;35.05;;;19.67;;
22470;SDS011;11402;51.374;6.594;2022-12-18T16:37:40;35.75;;;19.58;;
22470;SDS011;11402;51.374;6.594;2022-12-18T16:40:07;34.55;;;20.10;;
22470;SDS011;11402;51.374;6.594;2022-12-18T16:42:41;36.38;;;20.48;;
22470;SDS011;11402;51.374;6.594;2022-12-18T16:45:08;36.72;;;19.45;;
22470;SDS011;11402;51.374;6.594;2022-12-18T16:47:36;34.50;;;20.25;;
22470;SDS011;11402;51.374;6.594;2022-12-18T16:50:02;36.75;;;20.42;;
22470;SDS011;11402;51.374;6.594;2022-12-18T16:52:28;36.83;;;20.90;;